Terminal Aerodrome Forecast
Issued by NWS

Home | Current Version | Previous Version | Text Only | Print | Product List | Glossary On
Versions: 1 2 3 4 5 6 7 8 9 10 11 12 13 14 15
000
FTUS43 KFGF 281720
TAFDVL
TAF
KDVL 281720Z 2818/2918 21010KT P6SM BKN025 OVC035
     FM282000 28015KT P6SM VCTS BKN040CB
     FM282300 35012KT P6SM VCSH BKN050
     FM290500 01015G23KT P6SM OVC025
     FM290900 01019G28KT P6SM BKN100
      AMD LTD TO CLD VIS AND WIND=

USA.gov is the U.S. government's official web portal to all federal, state and local government web resources and services.